sensor_id;sensor_type;location;lat;lon;timestamp;P1;durP1;ratioP1;P2;durP2;ratioP2
30818;SDS011;17546;42.674;23.284;2023-04-03T00:02:03;8.63;;;2.60;;
30818;SDS011;17546;42.674;23.284;2023-04-03T00:04:28;7.22;;;2.50;;
30818;SDS011;17546;42.674;23.284;2023-04-03T00:06:53;6.72;;;2.83;;
30818;SDS011;17546;42.674;23.284;2023-04-03T00:09:19;5.60;;;2.83;;
30818;SDS011;17546;42.674;23.284;2023-04-03T00:11:45;4.90;;;2.67;;
30818;SDS011;17546;42.674;23.284;2023-04-03T00:14:10;7.13;;;2.95;;
30818;SDS011;17546;42.674;23.284;2023-04-03T00:16:36;5.88;;;2.83;;
30818;SDS011;17546;42.674;23.284;2023-04-03T00:19:01;7.65;;;2.25;;
30818;SDS011;17546;42.674;23.284;2023-04-03T00:21:26;5.78;;;2.35;;
30818;SDS011;17546;42.674;23.284;2023-04-03T00:23:52;5.05;;;2.28;;
30818;SDS011;17546;42.674;23.284;2023-04-03T00:26:17;7.70;;;2.42;;
30818;SDS011;17546;42.674;23.284;2023-04-03T00:28:43;5.78;;;2.30;;
30818;SDS011;17546;42.674;23.284;2023-04-03T00:31:09;7.13;;;2.35;;
30818;SDS011;17546;42.674;23.284;2023-04-03T00:33:34;6.35;;;2.97;;
30818;SDS011;17546;42.674;23.284;2023-04-03T00:36:04;6.32;;;2.30;;
30818;SDS011;17546;42.674;23.284;2023-04-03T00:38:31;7.35;;;2.60;;
30818;SDS011;17546;42.674;23.284;2023-04-03T00:40:56;5.78;;;2.70;;
30818;SDS011;17546;42.674;23.284;2023-04-03T00:43:23;6.43;;;2.95;;
30818;SDS011;17546;42.674;23.284;2023-04-03T00:45:51;7.65;;;3.03;;
30818;SDS011;17546;42.674;23.284;2023-04-03T00:48:28;9.80;;;3.20;;
30818;SDS011;17546;42.674;23.284;2023-04-03T00:50:56;4.60;;;2.40;;
30818;SDS011;17546;42.674;23.284;2023-04-03T00:53:23;4.25;;;2.35;;
30818;SDS011;17546;42.674;23.284;2023-04-03T00:55:52;5.63;;;2.53;;
30818;SDS011;17546;42.674;23.284;2023-04-03T00:58:20;4.13;;;2.10;;
30818;SDS011;17546;42.674;23.284;2023-04-03T01:00:54;5.30;;;2.05;;
30818;SDS011;17546;42.674;23.284;2023-04-03T01:03:23;3.97;;;2.00;;
30818;SDS011;17546;42.674;23.284;2023-04-03T01:05:48;4.85;;;2.17;;
30818;SDS011;17546;42.674;23.284;2023-04-03T01:08:14;4.97;;;2.42;;
30818;SDS011;17546;42.674;23.284;2023-04-03T01:10:40;5.97;;;2.58;;
30818;SDS011;17546;42.674;23.284;2023-04-03T01:13:19;5.63;;;2.53;;
30818;SDS011;17546;42.674;23.284;2023-04-03T01:15:48;7.30;;;2.70;;
30818;SDS011;17546;42.674;23.284;2023-04-03T01:18:14;5.15;;;2.60;;
30818;SDS011;17546;42.674;23.284;2023-04-03T01:20:43;7.07;;;2.70;;
30818;SDS011;17546;42.674;23.284;2023-04-03T01:26:32;6.00;;;3.03;;
30818;SDS011;17546;42.674;23.284;2023-04-03T01:28:58;6.28;;;2.58;;
30818;SDS011;17546;42.674;23.284;2023-04-03T01:31:25;5.07;;;2.60;;
30818;SDS011;17546;42.674;23.284;2023-04-03T01:33:55;4.13;;;2.15;;
30818;SDS011;17546;42.674;23.284;2023-04-03T01:36:24;5.65;;;2.65;;
30818;SDS011;17546;42.674;23.284;2023-04-03T01:38:52;6.78;;;2.63;;
30818;SDS011;17546;42.674;23.284;2023-04-03T01:41:18;6.15;;;2.90;;
30818;SDS011;17546;42.674;23.284;2023-04-03T01:43:45;4.80;;;2.63;;
30818;SDS011;17546;42.674;23.284;2023-04-03T01:46:11;10.77;;;3.38;;
30818;SDS011;17546;42.674;23.284;2023-04-03T01:48:36;12.93;;;3.80;;
30818;SDS011;17546;42.674;23.284;2023-04-03T01:51:02;6.88;;;3.63;;
30818;SDS011;17546;42.674;23.284;2023-04-03T01:53:27;13.68;;;3.80;;
30818;SDS011;17546;42.674;23.284;2023-04-03T01:55:53;13.23;;;3.80;;
30818;SDS011;17546;42.674;23.284;2023-04-03T01:58:18;10.68;;;3.90;;
30818;SDS011;17546;42.674;23.284;2023-04-03T02:00:43;10.27;;;3.70;;
30818;SDS011;17546;42.674;23.284;2023-04-03T02:03:09;7.35;;;3.47;;
30818;SDS011;17546;42.674;23.284;2023-04-03T02:05:34;11.07;;;3.60;;
30818;SDS011;17546;42.674;23.284;2023-04-03T02:08:00;9.52;;;4.15;;
30818;SDS011;17546;42.674;23.284;2023-04-03T02:10:26;11.40;;;4.10;;
30818;SDS011;17546;42.674;23.284;2023-04-03T02:12:51;11.02;;;4.68;;
30818;SDS011;17546;42.674;23.284;2023-04-03T02:15:17;15.65;;;6.90;;
30818;SDS011;17546;42.674;23.284;2023-04-03T02:17:43;14.38;;;6.45;;
30818;SDS011;17546;42.674;23.284;2023-04-03T02:20:09;19.75;;;7.38;;
30818;SDS011;17546;42.674;23.284;2023-04-03T02:22:34;16.15;;;6.35;;
30818;SDS011;17546;42.674;23.284;2023-04-03T02:25:00;14.05;;;6.15;;
30818;SDS011;17546;42.674;23.284;2023-04-03T02:27:26;14.90;;;5.70;;
30818;SDS011;17546;42.674;23.284;2023-04-03T02:29:51;16.83;;;6.47;;
30818;SDS011;17546;42.674;23.284;2023-04-03T02:32:17;16.35;;;5.47;;
30818;SDS011;17546;42.674;23.284;2023-04-03T02:34:42;15.23;;;5.50;;
30818;SDS011;17546;42.674;23.284;2023-04-03T02:37:08;14.00;;;5.80;;
30818;SDS011;17546;42.674;23.284;2023-04-03T02:39:33;15.98;;;5.40;;
30818;SDS011;17546;42.674;23.284;2023-04-03T02:41:59;16.85;;;5.28;;
30818;SDS011;17546;42.674;23.284;2023-04-03T02:44:25;14.40;;;5.90;;
30818;SDS011;17546;42.674;23.284;2023-04-03T02:46:50;19.33;;;5.68;;
30818;SDS011;17546;42.674;23.284;2023-04-03T02:49:16;14.50;;;4.63;;
30818;SDS011;17546;42.674;23.284;2023-04-03T02:51:41;18.42;;;4.65;;
30818;SDS011;17546;42.674;23.284;2023-04-03T02:54:06;10.75;;;4.45;;
30818;SDS011;17546;42.674;23.284;2023-04-03T02:56:32;11.80;;;4.63;;
30818;SDS011;17546;42.674;23.284;2023-04-03T02:58:58;9.88;;;4.70;;
30818;SDS011;17546;42.674;23.284;2023-04-03T03:01:23;10.90;;;4.38;;
30818;SDS011;17546;42.674;23.284;2023-04-03T03:03:49;9.85;;;4.18;;
30818;SDS011;17546;42.674;23.284;2023-04-03T03:06:15;8.10;;;4.13;;
30818;SDS011;17546;42.674;23.284;2023-04-03T03:08:42;12.05;;;4.05;;
30818;SDS011;17546;42.674;23.284;2023-04-03T03:11:08;9.15;;;4.30;;
30818;SDS011;17546;42.674;23.284;2023-04-03T03:13:35;9.85;;;4.20;;
30818;SDS011;17546;42.674;23.284;2023-04-03T03:16:00;10.88;;;4.22;;
30818;SDS011;17546;42.674;23.284;2023-04-03T03:18:28;18.20;;;5.15;;
30818;SDS011;17546;42.674;23.284;2023-04-03T03:20:57;10.70;;;4.90;;
30818;SDS011;17546;42.674;23.284;2023-04-03T03:23:24;14.25;;;5.00;;
30818;SDS011;17546;42.674;23.284;2023-04-03T03:25:55;13.63;;;4.97;;
30818;SDS011;17546;42.674;23.284;2023-04-03T03:28:21;9.43;;;4.20;;
30818;SDS011;17546;42.674;23.284;2023-04-03T03:30:47;11.95;;;4.45;;
30818;SDS011;17546;42.674;23.284;2023-04-03T03:33:12;10.38;;;4.45;;
30818;SDS011;17546;42.674;23.284;2023-04-03T03:35:37;15.63;;;5.45;;
30818;SDS011;17546;42.674;23.284;2023-04-03T03:38:03;14.57;;;5.10;;
30818;SDS011;17546;42.674;23.284;2023-04-03T03:40:28;14.82;;;5.20;;
30818;SDS011;17546;42.674;23.284;2023-04-03T03:42:54;11.95;;;4.72;;
30818;SDS011;17546;42.674;23.284;2023-04-03T03:45:19;12.55;;;4.82;;
30818;SDS011;17546;42.674;23.284;2023-04-03T03:47:45;14.40;;;5.05;;
30818;SDS011;17546;42.674;23.284;2023-04-03T03:50:10;17.42;;;5.38;;
30818;SDS011;17546;42.674;23.284;2023-04-03T03:52:36;11.55;;;4.95;;
30818;SDS011;17546;42.674;23.284;2023-04-03T03:55:01;16.73;;;5.75;;
30818;SDS011;17546;42.674;23.284;2023-04-03T03:57:27;14.77;;;5.95;;
30818;SDS011;17546;42.674;23.284;2023-04-03T03:59:53;13.18;;;5.95;;
30818;SDS011;17546;42.674;23.284;2023-04-03T04:02:19;14.27;;;5.82;;
30818;SDS011;17546;42.674;23.284;2023-04-03T04:04:44;14.10;;;5.47;;
30818;SDS011;17546;42.674;23.284;2023-04-03T04:07:10;15.35;;;6.10;;
30818;SDS011;17546;42.674;23.284;2023-04-03T04:09:36;15.45;;;6.07;;
30818;SDS011;17546;42.674;23.284;2023-04-03T04:12:02;12.00;;;6.65;;
30818;SDS011;17546;42.674;23.284;2023-04-03T04:14:27;13.73;;;6.22;;
30818;SDS011;17546;42.674;23.284;2023-04-03T04:16:52;13.35;;;5.78;;
30818;SDS011;17546;42.674;23.284;2023-04-03T04:19:18;14.23;;;5.10;;
30818;SDS011;17546;42.674;23.284;2023-04-03T04:21:43;17.23;;;5.40;;
30818;SDS011;17546;42.674;23.284;2023-04-03T04:24:09;11.32;;;4.85;;
30818;SDS011;17546;42.674;23.284;2023-04-03T04:26:36;14.82;;;5.00;;
30818;SDS011;17546;42.674;23.284;2023-04-03T04:29:02;14.88;;;5.43;;
30818;SDS011;17546;42.674;23.284;2023-04-03T04:31:27;20.10;;;5.20;;
30818;SDS011;17546;42.674;23.284;2023-04-03T04:33:53;18.58;;;5.55;;
30818;SDS011;17546;42.674;23.284;2023-04-03T04:36:18;12.65;;;4.80;;
30818;SDS011;17546;42.674;23.284;2023-04-03T04:38:44;13.27;;;5.32;;
30818;SDS011;17546;42.674;23.284;2023-04-03T04:41:10;19.60;;;5.35;;
30818;SDS011;17546;42.674;23.284;2023-04-03T04:43:36;20.20;;;5.07;;
30818;SDS011;17546;42.674;23.284;2023-04-03T04:46:05;12.10;;;5.22;;
30818;SDS011;17546;42.674;23.284;2023-04-03T04:48:32;18.38;;;5.22;;
30818;SDS011;17546;42.674;23.284;2023-04-03T04:50:58;21.13;;;5.75;;
30818;SDS011;17546;42.674;23.284;2023-04-03T04:53:24;19.33;;;6.15;;
30818;SDS011;17546;42.674;23.284;2023-04-03T04:55:49;14.68;;;6.43;;
30818;SDS011;17546;42.674;23.284;2023-04-03T04:58:14;18.00;;;6.22;;
30818;SDS011;17546;42.674;23.284;2023-04-03T05:00:40;26.83;;;7.47;;
30818;SDS011;17546;42.674;23.284;2023-04-03T05:03:05;23.52;;;8.68;;
30818;SDS011;17546;42.674;23.284;2023-04-03T05:05:31;21.48;;;9.48;;
30818;SDS011;17546;42.674;23.284;2023-04-03T05:07:57;25.90;;;9.90;;
30818;SDS011;17546;42.674;23.284;2023-04-03T05:10:22;25.27;;;10.30;;
30818;SDS011;17546;42.674;23.284;2023-04-03T05:12:48;23.95;;;9.25;;
30818;SDS011;17546;42.674;23.284;2023-04-03T05:15:13;24.83;;;10.10;;
30818;SDS011;17546;42.674;23.284;2023-04-03T05:17:39;18.77;;;8.73;;
30818;SDS011;17546;42.674;23.284;2023-04-03T05:20:05;25.15;;;8.57;;
30818;SDS011;17546;42.674;23.284;2023-04-03T05:22:31;23.02;;;9.18;;
30818;SDS011;17546;42.674;23.284;2023-04-03T05:24:56;42.30;;;10.18;;
30818;SDS011;17546;42.674;23.284;2023-04-03T05:27:21;29.15;;;10.43;;
30818;SDS011;17546;42.674;23.284;2023-04-03T05:29:49;25.63;;;11.55;;
30818;SDS011;17546;42.674;23.284;2023-04-03T05:32:14;26.88;;;10.57;;
30818;SDS011;17546;42.674;23.284;2023-04-03T05:34:40;31.35;;;10.10;;
30818;SDS011;17546;42.674;23.284;2023-04-03T05:37:05;53.75;;;20.90;;
30818;SDS011;17546;42.674;23.284;2023-04-03T05:39:31;47.25;;;19.13;;
30818;SDS011;17546;42.674;23.284;2023-04-03T05:41:56;39.53;;;15.90;;
30818;SDS011;17546;42.674;23.284;2023-04-03T05:44:22;52.13;;;22.67;;
30818;SDS011;17546;42.674;23.284;2023-04-03T05:46:47;75.80;;;34.88;;
30818;SDS011;17546;42.674;23.284;2023-04-03T05:49:13;81.22;;;44.22;;
30818;SDS011;17546;42.674;23.284;2023-04-03T05:51:38;58.88;;;34.70;;
30818;SDS011;17546;42.674;23.284;2023-04-03T05:54:08;69.32;;;41.33;;
30818;SDS011;17546;42.674;23.284;2023-04-03T05:56:38;62.33;;;34.88;;
30818;SDS011;17546;42.674;23.284;2023-04-03T05:59:04;52.15;;;26.75;;
30818;SDS011;17546;42.674;23.284;2023-04-03T06:01:29;47.35;;;27.77;;
30818;SDS011;17546;42.674;23.284;2023-04-03T06:03:55;38.38;;;22.45;;
30818;SDS011;17546;42.674;23.284;2023-04-03T06:06:20;32.95;;;13.95;;
30818;SDS011;17546;42.674;23.284;2023-04-03T06:08:47;26.90;;;11.82;;
30818;SDS011;17546;42.674;23.284;2023-04-03T06:11:12;32.10;;;12.68;;
30818;SDS011;17546;42.674;23.284;2023-04-03T06:13:38;34.28;;;12.98;;
30818;SDS011;17546;42.674;23.284;2023-04-03T06:16:04;50.38;;;14.00;;
30818;SDS011;17546;42.674;23.284;2023-04-03T06:18:30;41.03;;;14.00;;
30818;SDS011;17546;42.674;23.284;2023-04-03T06:20:56;40.40;;;12.93;;
30818;SDS011;17546;42.674;23.284;2023-04-03T06:23:23;37.53;;;12.20;;
30818;SDS011;17546;42.674;23.284;2023-04-03T06:25:48;43.70;;;14.13;;
30818;SDS011;17546;42.674;23.284;2023-04-03T06:28:13;38.22;;;16.08;;
30818;SDS011;17546;42.674;23.284;2023-04-03T06:30:39;48.60;;;17.33;;
30818;SDS011;17546;42.674;23.284;2023-04-03T06:33:04;34.13;;;16.80;;
30818;SDS011;17546;42.674;23.284;2023-04-03T06:35:30;35.95;;;14.98;;
30818;SDS011;17546;42.674;23.284;2023-04-03T06:37:56;40.83;;;14.63;;
30818;SDS011;17546;42.674;23.284;2023-04-03T06:40:22;41.67;;;15.85;;
30818;SDS011;17546;42.674;23.284;2023-04-03T06:42:51;16.15;;;5.70;;
30818;SDS011;17546;42.674;23.284;2023-04-03T06:45:17;17.38;;;5.60;;
30818;SDS011;17546;42.674;23.284;2023-04-03T06:47:42;24.73;;;5.85;;
30818;SDS011;17546;42.674;23.284;2023-04-03T06:50:09;18.23;;;5.43;;
30818;SDS011;17546;42.674;23.284;2023-04-03T06:52:36;17.02;;;6.35;;
30818;SDS011;17546;42.674;23.284;2023-04-03T06:55:02;18.63;;;7.45;;
30818;SDS011;17546;42.674;23.284;2023-04-03T06:57:28;31.80;;;9.38;;
30818;SDS011;17546;42.674;23.284;2023-04-03T06:59:54;24.10;;;10.60;;
30818;SDS011;17546;42.674;23.284;2023-04-03T07:02:20;25.67;;;7.72;;
30818;SDS011;17546;42.674;23.284;2023-04-03T07:04:46;17.45;;;5.90;;
30818;SDS011;17546;42.674;23.284;2023-04-03T07:07:12;18.30;;;5.70;;
30818;SDS011;17546;42.674;23.284;2023-04-03T07:09:37;11.82;;;4.50;;
30818;SDS011;17546;42.674;23.284;2023-04-03T07:12:03;12.63;;;4.90;;
30818;SDS011;17546;42.674;23.284;2023-04-03T07:14:28;10.70;;;4.05;;
30818;SDS011;17546;42.674;23.284;2023-04-03T07:16:54;17.05;;;4.40;;
30818;SDS011;17546;42.674;23.284;2023-04-03T07:19:19;16.10;;;3.78;;
30818;SDS011;17546;42.674;23.284;2023-04-03T07:21:45;10.75;;;4.00;;
30818;SDS011;17546;42.674;23.284;2023-04-03T07:24:10;9.05;;;3.90;;
30818;SDS011;17546;42.674;23.284;2023-04-03T07:26:36;7.32;;;3.95;;
30818;SDS011;17546;42.674;23.284;2023-04-03T07:29:02;16.00;;;3.95;;
30818;SDS011;17546;42.674;23.284;2023-04-03T07:31:27;12.57;;;4.10;;
30818;SDS011;17546;42.674;23.284;2023-04-03T07:33:54;8.93;;;3.60;;
30818;SDS011;17546;42.674;23.284;2023-04-03T07:36:21;12.65;;;3.88;;
30818;SDS011;17546;42.674;23.284;2023-04-03T07:38:47;10.80;;;3.80;;
30818;SDS011;17546;42.674;23.284;2023-04-03T07:41:14;10.88;;;3.85;;
30818;SDS011;17546;42.674;23.284;2023-04-03T07:43:40;9.65;;;4.00;;
30818;SDS011;17546;42.674;23.284;2023-04-03T07:46:07;14.55;;;4.13;;
30818;SDS011;17546;42.674;23.284;2023-04-03T07:48:32;11.90;;;4.60;;
30818;SDS011;17546;42.674;23.284;2023-04-03T07:51:00;7.65;;;3.80;;
30818;SDS011;17546;42.674;23.284;2023-04-03T07:53:26;8.68;;;3.67;;
30818;SDS011;17546;42.674;23.284;2023-04-03T07:55:52;13.80;;;3.83;;
30818;SDS011;17546;42.674;23.284;2023-04-03T07:58:20;17.55;;;4.10;;
30818;SDS011;17546;42.674;23.284;2023-04-03T08:00:46;13.95;;;4.03;;
30818;SDS011;17546;42.674;23.284;2023-04-03T08:03:12;15.13;;;5.18;;
30818;SDS011;17546;42.674;23.284;2023-04-03T08:05:39;16.65;;;6.28;;
30818;SDS011;17546;42.674;23.284;2023-04-03T08:08:06;18.25;;;6.97;;
30818;SDS011;17546;42.674;23.284;2023-04-03T08:10:32;20.05;;;6.55;;
30818;SDS011;17546;42.674;23.284;2023-04-03T08:12:58;13.48;;;7.45;;
30818;SDS011;17546;42.674;23.284;2023-04-03T08:15:24;31.10;;;8.82;;
30818;SDS011;17546;42.674;23.284;2023-04-03T08:17:49;24.20;;;8.25;;
30818;SDS011;17546;42.674;23.284;2023-04-03T08:20:15;16.55;;;8.40;;
30818;SDS011;17546;42.674;23.284;2023-04-03T08:22:41;18.63;;;8.68;;
30818;SDS011;17546;42.674;23.284;2023-04-03T08:25:06;19.20;;;8.90;;
30818;SDS011;17546;42.674;23.284;2023-04-03T08:27:32;22.13;;;8.63;;
30818;SDS011;17546;42.674;23.284;2023-04-03T08:29:58;20.08;;;7.57;;
30818;SDS011;17546;42.674;23.284;2023-04-03T08:32:23;17.60;;;6.88;;
30818;SDS011;17546;42.674;23.284;2023-04-03T08:34:49;14.63;;;6.22;;
30818;SDS011;17546;42.674;23.284;2023-04-03T08:37:14;15.93;;;6.38;;
30818;SDS011;17546;42.674;23.284;2023-04-03T08:39:41;15.50;;;6.90;;
30818;SDS011;17546;42.674;23.284;2023-04-03T08:50:32;29.08;;;10.40;;
30818;SDS011;17546;42.674;23.284;2023-04-03T08:53:03;33.28;;;11.18;;
30818;SDS011;17546;42.674;23.284;2023-04-03T08:55:37;30.92;;;11.63;;
30818;SDS011;17546;42.674;23.284;2023-04-03T08:58:19;28.92;;;13.48;;
30818;SDS011;17546;42.674;23.284;2023-04-03T09:00:56;28.52;;;12.32;;
30818;SDS011;17546;42.674;23.284;2023-04-03T09:03:30;35.92;;;12.25;;
30818;SDS011;17546;42.674;23.284;2023-04-03T09:05:58;31.60;;;14.05;;
30818;SDS011;17546;42.674;23.284;2023-04-03T09:09:05;27.13;;;13.35;;
30818;SDS011;17546;42.674;23.284;2023-04-03T09:11:43;36.85;;;14.50;;
30818;SDS011;17546;42.674;23.284;2023-04-03T09:16:50;45.08;;;14.57;;
30818;SDS011;17546;42.674;23.284;2023-04-03T09:22:03;34.53;;;14.27;;
30818;SDS011;17546;42.674;23.284;2023-04-03T09:24:28;31.98;;;12.80;;
30818;SDS011;17546;42.674;23.284;2023-04-03T09:27:15;33.75;;;13.23;;
30818;SDS011;17546;42.674;23.284;2023-04-03T09:29:43;33.55;;;13.68;;
30818;SDS011;17546;42.674;23.284;2023-04-03T09:37:40;32.58;;;12.15;;
30818;SDS011;17546;42.674;23.284;2023-04-03T09:42:53;26.88;;;9.45;;
30818;SDS011;17546;42.674;23.284;2023-04-03T09:45:25;15.77;;;7.68;;
30818;SDS011;17546;42.674;23.284;2023-04-03T09:50:51;24.77;;;6.95;;
30818;SDS011;17546;42.674;23.284;2023-04-03T09:58:44;21.25;;;7.15;;
30818;SDS011;17546;42.674;23.284;2023-04-03T10:01:30;15.65;;;6.25;;
30818;SDS011;17546;42.674;23.284;2023-04-03T10:04:30;14.77;;;5.57;;
30818;SDS011;17546;42.674;23.284;2023-04-03T10:06:54;26.73;;;6.53;;
30818;SDS011;17546;42.674;23.284;2023-04-03T10:14:40;9.10;;;3.97;;
30818;SDS011;17546;42.674;23.284;2023-04-03T10:25:36;8.95;;;4.32;;
30818;SDS011;17546;42.674;23.284;2023-04-03T10:28:04;20.95;;;5.43;;
30818;SDS011;17546;42.674;23.284;2023-04-03T10:33:24;11.48;;;4.03;;
30818;SDS011;17546;42.674;23.284;2023-04-03T10:36:06;15.40;;;4.18;;
30818;SDS011;17546;42.674;23.284;2023-04-03T10:38:43;10.77;;;4.50;;
30818;SDS011;17546;42.674;23.284;2023-04-03T10:57:52;7.35;;;3.35;;
30818;SDS011;17546;42.674;23.284;2023-04-03T11:00:22;14.60;;;3.50;;
30818;SDS011;17546;42.674;23.284;2023-04-03T11:02:56;10.93;;;3.10;;
30818;SDS011;17546;42.674;23.284;2023-04-03T11:08:07;8.38;;;3.55;;
30818;SDS011;17546;42.674;23.284;2023-04-03T11:10:57;16.98;;;3.80;;
30818;SDS011;17546;42.674;23.284;2023-04-03T11:16:14;9.65;;;3.08;;
30818;SDS011;17546;42.674;23.284;2023-04-03T11:19:02;9.13;;;3.30;;
30818;SDS011;17546;42.674;23.284;2023-04-03T11:21:46;9.10;;;2.78;;
30818;SDS011;17546;42.674;23.284;2023-04-03T11:24:20;9.90;;;3.28;;
30818;SDS011;17546;42.674;23.284;2023-04-03T11:26:49;11.80;;;3.85;;
30818;SDS011;17546;42.674;23.284;2023-04-03T11:29:21;8.20;;;3.53;;
30818;SDS011;17546;42.674;23.284;2023-04-03T11:36:50;9.63;;;3.85;;
30818;SDS011;17546;42.674;23.284;2023-04-03T11:39:33;10.38;;;4.78;;
30818;SDS011;17546;42.674;23.284;2023-04-03T11:42:22;7.88;;;3.53;;
30818;SDS011;17546;42.674;23.284;2023-04-03T11:48:41;10.10;;;3.58;;
30818;SDS011;17546;42.674;23.284;2023-04-03T11:50:57;6.13;;;3.30;;
30818;SDS011;17546;42.674;23.284;2023-04-03T11:53:30;7.30;;;3.50;;
30818;SDS011;17546;42.674;23.284;2023-04-03T11:55:57;8.75;;;3.80;;
30818;SDS011;17546;42.674;23.284;2023-04-03T11:58:24;9.40;;;4.18;;
30818;SDS011;17546;42.674;23.284;2023-04-03T12:03:30;9.38;;;4.38;;
30818;SDS011;17546;42.674;23.284;2023-04-03T12:08:45;9.35;;;3.72;;
30818;SDS011;17546;42.674;23.284;2023-04-03T12:45:46;10.13;;;4.57;;
30818;SDS011;17546;42.674;23.284;2023-04-03T12:48:17;11.93;;;4.18;;
30818;SDS011;17546;42.674;23.284;2023-04-03T12:50:47;9.25;;;4.32;;
30818;SDS011;17546;42.674;23.284;2023-04-03T12:53:21;10.93;;;4.28;;
30818;SDS011;17546;42.674;23.284;2023-04-03T12:55:56;10.40;;;4.57;;
30818;SDS011;17546;42.674;23.284;2023-04-03T12:58:42;7.53;;;3.90;;
30818;SDS011;17546;42.674;23.284;2023-04-03T13:01:11;11.48;;;4.95;;
30818;SDS011;17546;42.674;23.284;2023-04-03T13:03:43;7.97;;;4.40;;
30818;SDS011;17546;42.674;23.284;2023-04-03T13:06:17;8.23;;;4.32;;
30818;SDS011;17546;42.674;23.284;2023-04-03T13:08:53;12.43;;;5.25;;
30818;SDS011;17546;42.674;23.284;2023-04-03T13:11:22;8.88;;;4.50;;
30818;SDS011;17546;42.674;23.284;2023-04-03T13:14:00;9.50;;;4.93;;
30818;SDS011;17546;42.674;23.284;2023-04-03T13:19:18;11.85;;;5.05;;
30818;SDS011;17546;42.674;23.284;2023-04-03T13:21:44;9.25;;;5.28;;
30818;SDS011;17546;42.674;23.284;2023-04-03T13:24:10;15.77;;;6.28;;
30818;SDS011;17546;42.674;23.284;2023-04-03T13:26:36;15.38;;;6.80;;
30818;SDS011;17546;42.674;23.284;2023-04-03T13:29:03;14.02;;;5.97;;
30818;SDS011;17546;42.674;23.284;2023-04-03T13:31:34;13.95;;;6.82;;
30818;SDS011;17546;42.674;23.284;2023-04-03T13:34:17;10.95;;;5.90;;
30818;SDS011;17546;42.674;23.284;2023-04-03T13:36:45;12.23;;;6.13;;
30818;SDS011;17546;42.674;23.284;2023-04-03T13:39:27;7.97;;;5.28;;
30818;SDS011;17546;42.674;23.284;2023-04-03T13:41:56;10.17;;;5.73;;
30818;SDS011;17546;42.674;23.284;2023-04-03T13:46:53;11.18;;;6.03;;
30818;SDS011;17546;42.674;23.284;2023-04-03T13:54:59;10.57;;;5.78;;
30818;SDS011;17546;42.674;23.284;2023-04-03T13:57:26;12.93;;;6.60;;
30818;SDS011;17546;42.674;23.284;2023-04-03T13:59:53;10.07;;;6.28;;
30818;SDS011;17546;42.674;23.284;2023-04-03T14:02:22;13.35;;;6.13;;
30818;SDS011;17546;42.674;23.284;2023-04-03T14:04:56;13.93;;;7.07;;
30818;SDS011;17546;42.674;23.284;2023-04-03T14:07:26;9.75;;;6.50;;
30818;SDS011;17546;42.674;23.284;2023-04-03T14:09:52;15.57;;;6.15;;
30818;SDS011;17546;42.674;23.284;2023-04-03T14:14:44;11.85;;;5.90;;
30818;SDS011;17546;42.674;23.284;2023-04-03T14:17:18;9.15;;;5.47;;
30818;SDS011;17546;42.674;23.284;2023-04-03T14:19:45;11.90;;;5.77;;
30818;SDS011;17546;42.674;23.284;2023-04-03T14:22:18;13.25;;;5.75;;
30818;SDS011;17546;42.674;23.284;2023-04-03T14:24:47;10.63;;;5.45;;
30818;SDS011;17546;42.674;23.284;2023-04-03T14:27:19;15.38;;;5.75;;
30818;SDS011;17546;42.674;23.284;2023-04-03T14:29:45;8.80;;;4.35;;
30818;SDS011;17546;42.674;23.284;2023-04-03T14:32:13;10.48;;;6.25;;
30818;SDS011;17546;42.674;23.284;2023-04-03T14:34:40;13.35;;;6.00;;
30818;SDS011;17546;42.674;23.284;2023-04-03T14:37:15;10.15;;;5.03;;
30818;SDS011;17546;42.674;23.284;2023-04-03T14:39:43;11.02;;;5.70;;
30818;SDS011;17546;42.674;23.284;2023-04-03T14:42:13;8.65;;;5.05;;
30818;SDS011;17546;42.674;23.284;2023-04-03T14:44:59;9.32;;;4.65;;
30818;SDS011;17546;42.674;23.284;2023-04-03T14:47:28;7.97;;;4.68;;
30818;SDS011;17546;42.674;23.284;2023-04-03T14:49:54;7.45;;;4.78;;
30818;SDS011;17546;42.674;23.284;2023-04-03T14:54:50;8.07;;;4.20;;
30818;SDS011;17546;42.674;23.284;2023-04-03T14:57:17;9.32;;;4.22;;
30818;SDS011;17546;42.674;23.284;2023-04-03T14:59:44;7.30;;;4.68;;
30818;SDS011;17546;42.674;23.284;2023-04-03T15:04:55;10.25;;;5.00;;
30818;SDS011;17546;42.674;23.284;2023-04-03T15:07:22;11.40;;;5.50;;
30818;SDS011;17546;42.674;23.284;2023-04-03T15:09:50;9.00;;;5.05;;
30818;SDS011;17546;42.674;23.284;2023-04-03T15:12:15;7.75;;;4.50;;
30818;SDS011;17546;42.674;23.284;2023-04-03T15:14:45;10.80;;;6.07;;
30818;SDS011;17546;42.674;23.284;2023-04-03T15:17:14;8.20;;;4.70;;
30818;SDS011;17546;42.674;23.284;2023-04-03T15:19:43;11.18;;;5.00;;
30818;SDS011;17546;42.674;23.284;2023-04-03T15:22:16;10.10;;;3.90;;
30818;SDS011;17546;42.674;23.284;2023-04-03T15:24:43;8.50;;;4.28;;
30818;SDS011;17546;42.674;23.284;2023-04-03T15:27:09;5.70;;;4.20;;
30818;SDS011;17546;42.674;23.284;2023-04-03T15:29:37;8.18;;;4.55;;
30818;SDS011;17546;42.674;23.284;2023-04-03T15:32:03;7.53;;;4.53;;
30818;SDS011;17546;42.674;23.284;2023-04-03T15:34:29;13.32;;;5.20;;
30818;SDS011;17546;42.674;23.284;2023-04-03T15:36:55;8.55;;;4.80;;
30818;SDS011;17546;42.674;23.284;2023-04-03T15:39:20;7.18;;;4.53;;
30818;SDS011;17546;42.674;23.284;2023-04-03T15:41:47;5.70;;;4.07;;
30818;SDS011;17546;42.674;23.284;2023-04-03T15:44:13;6.78;;;4.75;;
30818;SDS011;17546;42.674;23.284;2023-04-03T15:46:38;9.40;;;4.50;;
30818;SDS011;17546;42.674;23.284;2023-04-03T15:49:04;12.68;;;5.07;;
30818;SDS011;17546;42.674;23.284;2023-04-03T15:51:30;7.75;;;5.25;;
30818;SDS011;17546;42.674;23.284;2023-04-03T15:53:56;8.73;;;4.90;;
30818;SDS011;17546;42.674;23.284;2023-04-03T15:56:21;8.52;;;4.78;;
30818;SDS011;17546;42.674;23.284;2023-04-03T15:58:47;8.80;;;4.68;;
30818;SDS011;17546;42.674;23.284;2023-04-03T16:01:12;10.35;;;5.13;;
30818;SDS011;17546;42.674;23.284;2023-04-03T16:03:39;9.23;;;5.15;;
30818;SDS011;17546;42.674;23.284;2023-04-03T16:06:19;7.63;;;4.95;;
30818;SDS011;17546;42.674;23.284;2023-04-03T16:08:54;10.43;;;5.82;;
30818;SDS011;17546;42.674;23.284;2023-04-03T16:11:22;11.55;;;5.85;;
30818;SDS011;17546;42.674;23.284;2023-04-03T16:13:49;11.02;;;5.80;;
30818;SDS011;17546;42.674;23.284;2023-04-03T16:16:15;8.38;;;4.50;;
30818;SDS011;17546;42.674;23.284;2023-04-03T16:18:40;7.68;;;4.65;;
30818;SDS011;17546;42.674;23.284;2023-04-03T16:21:06;7.78;;;4.40;;
30818;SDS011;17546;42.674;23.284;2023-04-03T16:23:33;10.93;;;5.32;;
30818;SDS011;17546;42.674;23.284;2023-04-03T16:25:58;5.68;;;3.90;;
30818;SDS011;17546;42.674;23.284;2023-04-03T16:28:24;10.35;;;5.93;;
30818;SDS011;17546;42.674;23.284;2023-04-03T16:30:50;12.00;;;6.13;;
30818;SDS011;17546;42.674;23.284;2023-04-03T16:33:15;13.65;;;7.05;;
30818;SDS011;17546;42.674;23.284;2023-04-03T16:35:42;13.07;;;6.47;;
30818;SDS011;17546;42.674;23.284;2023-04-03T16:38:08;14.57;;;5.40;;
30818;SDS011;17546;42.674;23.284;2023-04-03T16:40:34;8.77;;;5.40;;
30818;SDS011;17546;42.674;23.284;2023-04-03T16:43:00;9.48;;;4.55;;
30818;SDS011;17546;42.674;23.284;2023-04-03T16:45:26;11.95;;;5.32;;
30818;SDS011;17546;42.674;23.284;2023-04-03T16:47:52;14.80;;;6.68;;